sensor_id;sensor_type;location;lat;lon;timestamp;temperature;humidity
4985;DHT22;2509;49.902;8.600;2023-07-08T00:00:54;22.30;99.90
4985;DHT22;2509;49.902;8.600;2023-07-08T00:03:57;22.30;99.90
4985;DHT22;2509;49.902;8.600;2023-07-08T00:06:59;22.30;99.90
4985;DHT22;2509;49.902;8.600;2023-07-08T00:10:00;22.20;99.90
4985;DHT22;2509;49.902;8.600;2023-07-08T00:13:02;22.10;99.90
4985;DHT22;2509;49.902;8.600;2023-07-08T00:16:07;22.00;99.90
4985;DHT22;2509;49.902;8.600;2023-07-08T00:19:11;22.00;99.90
4985;DHT22;2509;49.902;8.600;2023-07-08T00:22:13;22.00;99.90
4985;DHT22;2509;49.902;8.600;2023-07-08T00:25:15;21.90;99.90
4985;DHT22;2509;49.902;8.600;2023-07-08T00:28:19;21.80;99.90
4985;DHT22;2509;49.902;8.600;2023-07-08T00:31:22;21.80;99.90
4985;DHT22;2509;49.902;8.600;2023-07-08T00:34:27;21.80;99.90
4985;DHT22;2509;49.902;8.600;2023-07-08T00:37:28;21.80;99.90
4985;DHT22;2509;49.902;8.600;2023-07-08T00:40:32;21.80;99.90
4985;DHT22;2509;49.902;8.600;2023-07-08T00:43:36;21.70;99.90
4985;DHT22;2509;49.902;8.600;2023-07-08T00:46:48;21.60;99.90
4985;DHT22;2509;49.902;8.600;2023-07-08T00:49:57;21.60;99.90
4985;DHT22;2509;49.902;8.600;2023-07-08T00:53:31;21.40;99.90
4985;DHT22;2509;49.902;8.600;2023-07-08T00:56:37;21.20;99.90
4985;DHT22;2509;49.902;8.600;2023-07-08T00:59:44;21.10;99.90
4985;DHT22;2509;49.902;8.600;2023-07-08T01:02:51;21.10;99.90
4985;DHT22;2509;49.902;8.600;2023-07-08T01:05:57;21.20;99.90
4985;DHT22;2509;49.902;8.600;2023-07-08T01:09:02;21.30;99.90
4985;DHT22;2509;49.902;8.600;2023-07-08T01:12:09;21.20;99.90
4985;DHT22;2509;49.902;8.600;2023-07-08T01:15:12;21.10;99.90
4985;DHT22;2509;49.902;8.600;2023-07-08T01:18:17;21.10;99.90
4985;DHT22;2509;49.902;8.600;2023-07-08T01:21:32;21.10;99.90
4985;DHT22;2509;49.902;8.600;2023-07-08T01:24:37;20.90;99.90
4985;DHT22;2509;49.902;8.600;2023-07-08T01:27:42;20.80;99.90
4985;DHT22;2509;49.902;8.600;2023-07-08T01:30:45;20.80;99.90
4985;DHT22;2509;49.902;8.600;2023-07-08T01:33:48;20.80;99.90
4985;DHT22;2509;49.902;8.600;2023-07-08T01:36:54;20.80;99.90
4985;DHT22;2509;49.902;8.600;2023-07-08T01:39:58;20.80;99.90
4985;DHT22;2509;49.902;8.600;2023-07-08T01:43:14;20.90;99.90
4985;DHT22;2509;49.902;8.600;2023-07-08T01:46:19;21.00;99.90
4985;DHT22;2509;49.902;8.600;2023-07-08T01:49:22;21.10;99.90
4985;DHT22;2509;49.902;8.600;2023-07-08T01:52:24;21.20;99.90
4985;DHT22;2509;49.902;8.600;2023-07-08T01:55:27;21.20;99.90
4985;DHT22;2509;49.902;8.600;2023-07-08T01:58:30;21.20;99.70
4985;DHT22;2509;49.902;8.600;2023-07-08T02:01:32;21.00;99.40
4985;DHT22;2509;49.902;8.600;2023-07-08T02:04:34;20.90;99.90
4985;DHT22;2509;49.902;8.600;2023-07-08T02:07:35;20.90;99.90
4985;DHT22;2509;49.902;8.600;2023-07-08T02:10:42;21.00;99.90
4985;DHT22;2509;49.902;8.600;2023-07-08T02:13:44;21.00;99.90
4985;DHT22;2509;49.902;8.600;2023-07-08T02:16:46;21.00;99.90
4985;DHT22;2509;49.902;8.600;2023-07-08T02:19:47;21.00;99.90
4985;DHT22;2509;49.902;8.600;2023-07-08T02:22:49;20.90;99.90
4985;DHT22;2509;49.902;8.600;2023-07-08T02:25:53;20.90;99.90
4985;DHT22;2509;49.902;8.600;2023-07-08T02:28:55;20.80;99.90
4985;DHT22;2509;49.902;8.600;2023-07-08T02:31:57;20.80;99.90
4985;DHT22;2509;49.902;8.600;2023-07-08T02:34:58;20.70;99.90
4985;DHT22;2509;49.902;8.600;2023-07-08T02:38:00;20.60;99.90
4985;DHT22;2509;49.902;8.600;2023-07-08T02:41:03;20.60;99.90
4985;DHT22;2509;49.902;8.600;2023-07-08T02:44:05;20.40;99.90
4985;DHT22;2509;49.902;8.600;2023-07-08T02:47:07;20.30;99.90
4985;DHT22;2509;49.902;8.600;2023-07-08T02:50:09;20.10;99.90
4985;DHT22;2509;49.902;8.600;2023-07-08T02:53:12;20.10;99.90
4985;DHT22;2509;49.902;8.600;2023-07-08T02:56:15;20.20;99.90
4985;DHT22;2509;49.902;8.600;2023-07-08T02:59:16;20.30;99.90
4985;DHT22;2509;49.902;8.600;2023-07-08T03:02:18;20.40;99.90
4985;DHT22;2509;49.902;8.600;2023-07-08T03:05:20;20.40;99.90
4985;DHT22;2509;49.902;8.600;2023-07-08T03:08:22;20.30;99.90
4985;DHT22;2509;49.902;8.600;2023-07-08T03:11:25;20.20;99.90
4985;DHT22;2509;49.902;8.600;2023-07-08T03:14:26;20.00;99.90
4985;DHT22;2509;49.902;8.600;2023-07-08T03:17:28;19.80;99.90
4985;DHT22;2509;49.902;8.600;2023-07-08T03:20:30;19.60;99.90
4985;DHT22;2509;49.902;8.600;2023-07-08T03:23:32;19.60;99.90
4985;DHT22;2509;49.902;8.600;2023-07-08T03:26:36;19.70;99.90
4985;DHT22;2509;49.902;8.600;2023-07-08T03:29:37;19.70;99.90
4985;DHT22;2509;49.902;8.600;2023-07-08T03:32:39;19.70;99.90
4985;DHT22;2509;49.902;8.600;2023-07-08T03:35:41;19.80;99.90
4985;DHT22;2509;49.902;8.600;2023-07-08T03:38:43;19.90;99.90
4985;DHT22;2509;49.902;8.600;2023-07-08T03:41:47;19.70;99.90
4985;DHT22;2509;49.902;8.600;2023-07-08T03:44:49;19.80;99.90
4985;DHT22;2509;49.902;8.600;2023-07-08T03:47:50;19.70;99.90
4985;DHT22;2509;49.902;8.600;2023-07-08T03:50:52;19.70;99.90
4985;DHT22;2509;49.902;8.600;2023-07-08T03:53:54;19.80;99.90
4985;DHT22;2509;49.902;8.600;2023-07-08T03:56:57;19.70;99.90
4985;DHT22;2509;49.902;8.600;2023-07-08T03:59:59;19.70;99.90
4985;DHT22;2509;49.902;8.600;2023-07-08T04:03:00;19.70;99.90
4985;DHT22;2509;49.902;8.600;2023-07-08T04:06:02;19.70;99.90
4985;DHT22;2509;49.902;8.600;2023-07-08T04:09:04;19.80;99.90
4985;DHT22;2509;49.902;8.600;2023-07-08T04:12:09;19.80;99.90
4985;DHT22;2509;49.902;8.600;2023-07-08T04:15:12;19.80;99.90
4985;DHT22;2509;49.902;8.600;2023-07-08T04:18:14;19.80;99.90
4985;DHT22;2509;49.902;8.600;2023-07-08T04:21:16;19.80;99.90
4985;DHT22;2509;49.902;8.600;2023-07-08T04:24:17;19.90;99.90
4985;DHT22;2509;49.902;8.600;2023-07-08T04:27:21;19.90;99.90
4985;DHT22;2509;49.902;8.600;2023-07-08T04:30:25;20.00;99.90
4985;DHT22;2509;49.902;8.600;2023-07-08T04:33:27;20.00;99.90
4985;DHT22;2509;49.902;8.600;2023-07-08T04:36:29;20.10;99.90
4985;DHT22;2509;49.902;8.600;2023-07-08T04:39:31;20.20;99.90
4985;DHT22;2509;49.902;8.600;2023-07-08T04:42:34;20.20;99.30
4985;DHT22;2509;49.902;8.600;2023-07-08T04:45:36;20.30;99.90
4985;DHT22;2509;49.902;8.600;2023-07-08T04:48:38;20.50;99.80
4985;DHT22;2509;49.902;8.600;2023-07-08T04:51:41;20.60;99.70
4985;DHT22;2509;49.902;8.600;2023-07-08T04:54:42;20.70;99.30
4985;DHT22;2509;49.902;8.600;2023-07-08T04:57:46;20.80;99.40
4985;DHT22;2509;49.902;8.600;2023-07-08T05:00:48;20.80;99.10
4985;DHT22;2509;49.902;8.600;2023-07-08T05:03:50;20.90;99.80
4985;DHT22;2509;49.902;8.600;2023-07-08T05:06:51;21.00;99.30
4985;DHT22;2509;49.902;8.600;2023-07-08T05:09:53;21.10;99.90
4985;DHT22;2509;49.902;8.600;2023-07-08T05:12:56;21.20;99.60
4985;DHT22;2509;49.902;8.600;2023-07-08T05:15:58;21.30;99.90
4985;DHT22;2509;49.902;8.600;2023-07-08T05:19:00;21.30;99.10
4985;DHT22;2509;49.902;8.600;2023-07-08T05:22:01;21.30;98.80
4985;DHT22;2509;49.902;8.600;2023-07-08T05:25:04;21.30;98.90
4985;DHT22;2509;49.902;8.600;2023-07-08T05:28:07;21.40;98.40
4985;DHT22;2509;49.902;8.600;2023-07-08T05:31:10;21.40;98.30
4985;DHT22;2509;49.902;8.600;2023-07-08T05:34:11;21.40;98.50
4985;DHT22;2509;49.902;8.600;2023-07-08T05:37:14;21.50;98.20
4985;DHT22;2509;49.902;8.600;2023-07-08T05:40:16;21.60;98.20
4985;DHT22;2509;49.902;8.600;2023-07-08T05:43:19;21.70;97.40
4985;DHT22;2509;49.902;8.600;2023-07-08T05:46:21;21.80;97.70
4985;DHT22;2509;49.902;8.600;2023-07-08T05:49:23;22.00;96.90
4985;DHT22;2509;49.902;8.600;2023-07-08T05:52:24;22.10;97.90
4985;DHT22;2509;49.902;8.600;2023-07-08T05:55:26;22.30;97.80
4985;DHT22;2509;49.902;8.600;2023-07-08T05:58:29;22.40;98.10
4985;DHT22;2509;49.902;8.600;2023-07-08T06:01:31;22.60;97.60
4985;DHT22;2509;49.902;8.600;2023-07-08T06:04:34;22.70;96.80
4985;DHT22;2509;49.902;8.600;2023-07-08T06:07:35;22.70;96.30
4985;DHT22;2509;49.902;8.600;2023-07-08T06:10:42;22.80;95.90
4985;DHT22;2509;49.902;8.600;2023-07-08T06:13:45;22.80;95.70
4985;DHT22;2509;49.902;8.600;2023-07-08T06:16:47;22.90;95.70
4985;DHT22;2509;49.902;8.600;2023-07-08T06:19:49;23.00;95.40
4985;DHT22;2509;49.902;8.600;2023-07-08T06:22:51;23.10;96.30
4985;DHT22;2509;49.902;8.600;2023-07-08T06:25:52;23.10;96.50
4985;DHT22;2509;49.902;8.600;2023-07-08T06:28:55;23.00;96.70
4985;DHT22;2509;49.902;8.600;2023-07-08T06:31:57;23.00;97.00
4985;DHT22;2509;49.902;8.600;2023-07-08T06:34:59;23.00;96.80
4985;DHT22;2509;49.902;8.600;2023-07-08T06:38:00;23.00;98.10
4985;DHT22;2509;49.902;8.600;2023-07-08T06:41:02;23.10;97.50
4985;DHT22;2509;49.902;8.600;2023-07-08T06:44:05;23.20;97.90
4985;DHT22;2509;49.902;8.600;2023-07-08T06:47:07;23.20;97.60
4985;DHT22;2509;49.902;8.600;2023-07-08T06:50:09;23.30;97.90
4985;DHT22;2509;49.902;8.600;2023-07-08T06:53:11;23.30;97.20
4985;DHT22;2509;49.902;8.600;2023-07-08T06:56:13;23.30;98.10
4985;DHT22;2509;49.902;8.600;2023-07-08T06:59:16;23.30;98.20
4985;DHT22;2509;49.902;8.600;2023-07-08T07:02:18;23.40;98.40
4985;DHT22;2509;49.902;8.600;2023-07-08T07:05:19;23.60;97.30
4985;DHT22;2509;49.902;8.600;2023-07-08T07:08:21;23.60;96.20
4985;DHT22;2509;49.902;8.600;2023-07-08T07:11:23;23.70;97.50
4985;DHT22;2509;49.902;8.600;2023-07-08T07:14:26;23.80;97.80
4985;DHT22;2509;49.902;8.600;2023-07-08T07:17:28;23.90;97.50
4985;DHT22;2509;49.902;8.600;2023-07-08T07:20:30;23.90;97.90
4985;DHT22;2509;49.902;8.600;2023-07-08T07:23:31;23.90;97.80
4985;DHT22;2509;49.902;8.600;2023-07-08T07:26:33;23.90;97.80
4985;DHT22;2509;49.902;8.600;2023-07-08T07:29:43;23.80;97.20
4985;DHT22;2509;49.902;8.600;2023-07-08T07:32:45;23.70;97.80
4985;DHT22;2509;49.902;8.600;2023-07-08T07:35:47;23.60;98.00
4985;DHT22;2509;49.902;8.600;2023-07-08T07:38:51;23.60;98.00
4985;DHT22;2509;49.902;8.600;2023-07-08T07:41:53;23.70;97.90
4985;DHT22;2509;49.902;8.600;2023-07-08T07:44:56;23.70;98.20
4985;DHT22;2509;49.902;8.600;2023-07-08T07:47:58;23.70;98.20
4985;DHT22;2509;49.902;8.600;2023-07-08T07:51:00;23.90;98.20
4985;DHT22;2509;49.902;8.600;2023-07-08T07:54:01;24.30;97.60
4985;DHT22;2509;49.902;8.600;2023-07-08T07:57:04;24.50;96.80
4985;DHT22;2509;49.902;8.600;2023-07-08T08:00:09;24.80;96.00
4985;DHT22;2509;49.902;8.600;2023-07-08T08:03:10;25.00;95.60
4985;DHT22;2509;49.902;8.600;2023-07-08T08:06:12;25.30;94.90
4985;DHT22;2509;49.902;8.600;2023-07-08T08:09:14;25.60;94.50
4985;DHT22;2509;49.902;8.600;2023-07-08T08:12:16;25.90;94.70
4985;DHT22;2509;49.902;8.600;2023-07-08T08:15:19;26.10;93.50
4985;DHT22;2509;49.902;8.600;2023-07-08T08:18:21;26.30;91.70
4985;DHT22;2509;49.902;8.600;2023-07-08T08:21:23;26.40;91.00
4985;DHT22;2509;49.902;8.600;2023-07-08T08:24:24;26.70;90.30
4985;DHT22;2509;49.902;8.600;2023-07-08T08:27:26;26.90;89.90
4985;DHT22;2509;49.902;8.600;2023-07-08T08:30:29;27.20;87.90
4985;DHT22;2509;49.902;8.600;2023-07-08T08:33:31;27.40;84.50
4985;DHT22;2509;49.902;8.600;2023-07-08T08:36:33;27.60;85.50
4985;DHT22;2509;49.902;8.600;2023-07-08T08:39:34;27.70;85.90
4985;DHT22;2509;49.902;8.600;2023-07-08T08:42:40;27.70;85.20
4985;DHT22;2509;49.902;8.600;2023-07-08T08:45:50;27.60;86.30
4985;DHT22;2509;49.902;8.600;2023-07-08T08:48:59;27.60;87.00
4985;DHT22;2509;49.902;8.600;2023-07-08T08:52:04;27.50;88.00
4985;DHT22;2509;49.902;8.600;2023-07-08T08:55:11;27.50;88.80
4985;DHT22;2509;49.902;8.600;2023-07-08T08:58:25;27.70;87.00
4985;DHT22;2509;49.902;8.600;2023-07-08T09:01:31;28.10;82.90
4985;DHT22;2509;49.902;8.600;2023-07-08T09:04:35;28.40;81.50
4985;DHT22;2509;49.902;8.600;2023-07-08T09:07:44;28.50;81.50
4985;DHT22;2509;49.902;8.600;2023-07-08T09:10:49;28.50;80.90
4985;DHT22;2509;49.902;8.600;2023-07-08T09:13:53;28.40;80.30
4985;DHT22;2509;49.902;8.600;2023-07-08T09:17:11;28.60;80.60
4985;DHT22;2509;49.902;8.600;2023-07-08T09:20:21;28.70;80.70
4985;DHT22;2509;49.902;8.600;2023-07-08T09:23:25;28.90;80.00
4985;DHT22;2509;49.902;8.600;2023-07-08T09:26:30;29.10;81.60
4985;DHT22;2509;49.902;8.600;2023-07-08T09:29:33;29.10;79.70
4985;DHT22;2509;49.902;8.600;2023-07-08T09:32:37;29.30;79.70
4985;DHT22;2509;49.902;8.600;2023-07-08T09:35:41;29.40;79.40
4985;DHT22;2509;49.902;8.600;2023-07-08T09:38:46;29.50;79.90
4985;DHT22;2509;49.902;8.600;2023-07-08T09:41:49;29.70;81.70
4985;DHT22;2509;49.902;8.600;2023-07-08T09:44:55;30.10;79.80
4985;DHT22;2509;49.902;8.600;2023-07-08T09:48:01;30.50;78.30
4985;DHT22;2509;49.902;8.600;2023-07-08T09:51:04;30.60;78.30
4985;DHT22;2509;49.902;8.600;2023-07-08T09:54:08;30.60;78.40
4985;DHT22;2509;49.902;8.600;2023-07-08T09:57:20;30.70;77.40
4985;DHT22;2509;49.902;8.600;2023-07-08T10:00:28;30.80;77.80
4985;DHT22;2509;49.902;8.600;2023-07-08T10:03:36;30.90;78.10
4985;DHT22;2509;49.902;8.600;2023-07-08T10:06:38;31.10;77.90
4985;DHT22;2509;49.902;8.600;2023-07-08T10:09:40;31.20;79.30
4985;DHT22;2509;49.902;8.600;2023-07-08T10:12:52;31.30;79.90
4985;DHT22;2509;49.902;8.600;2023-07-08T10:15:57;31.30;78.10
4985;DHT22;2509;49.902;8.600;2023-07-08T10:19:09;31.40;77.50
4985;DHT22;2509;49.902;8.600;2023-07-08T10:22:23;31.40;78.00
4985;DHT22;2509;49.902;8.600;2023-07-08T10:25:31;31.60;78.40
4985;DHT22;2509;49.902;8.600;2023-07-08T10:28:39;31.80;78.70
4985;DHT22;2509;49.902;8.600;2023-07-08T10:31:48;31.90;78.20
4985;DHT22;2509;49.902;8.600;2023-07-08T10:34:59;32.00;76.20
4985;DHT22;2509;49.902;8.600;2023-07-08T10:38:16;32.00;76.40
4985;DHT22;2509;49.902;8.600;2023-07-08T10:41:40;32.10;76.10
4985;DHT22;2509;49.902;8.600;2023-07-08T10:44:50;32.20;76.40
4985;DHT22;2509;49.902;8.600;2023-07-08T10:48:06;32.30;77.10
4985;DHT22;2509;49.902;8.600;2023-07-08T10:51:18;32.40;77.60
4985;DHT22;2509;49.902;8.600;2023-07-08T10:54:36;32.60;76.40
4985;DHT22;2509;49.902;8.600;2023-07-08T10:58:00;32.90;76.60
4985;DHT22;2509;49.902;8.600;2023-07-08T11:01:08;33.10;76.80
4985;DHT22;2509;49.902;8.600;2023-07-08T11:04:24;33.00;76.90
4985;DHT22;2509;49.902;8.600;2023-07-08T11:07:36;33.10;75.80
4985;DHT22;2509;49.902;8.600;2023-07-08T11:10:48;33.30;74.90
4985;DHT22;2509;49.902;8.600;2023-07-08T11:13:54;33.50;74.20
4985;DHT22;2509;49.902;8.600;2023-07-08T11:17:08;33.70;73.60
4985;DHT22;2509;49.902;8.600;2023-07-08T11:20:16;33.90;73.30
4985;DHT22;2509;49.902;8.600;2023-07-08T11:23:27;34.40;73.80
4985;DHT22;2509;49.902;8.600;2023-07-08T11:26:33;34.90;74.80
4985;DHT22;2509;49.902;8.600;2023-07-08T11:29:40;35.30;74.30
4985;DHT22;2509;49.902;8.600;2023-07-08T11:32:45;35.40;72.50
4985;DHT22;2509;49.902;8.600;2023-07-08T11:35:51;35.70;71.40
4985;DHT22;2509;49.902;8.600;2023-07-08T11:38:57;36.00;71.20
4985;DHT22;2509;49.902;8.600;2023-07-08T11:42:19;36.00;71.10
4985;DHT22;2509;49.902;8.600;2023-07-08T11:45:26;36.50;69.60
4985;DHT22;2509;49.902;8.600;2023-07-08T11:48:31;37.20;68.60
4985;DHT22;2509;49.902;8.600;2023-07-08T11:51:37;37.20;68.90
4985;DHT22;2509;49.902;8.600;2023-07-08T11:54:44;37.20;69.00
4985;DHT22;2509;49.902;8.600;2023-07-08T11:57:52;37.60;69.10
4985;DHT22;2509;49.902;8.600;2023-07-08T12:00:59;37.80;69.30
4985;DHT22;2509;49.902;8.600;2023-07-08T12:04:20;37.70;66.70
4985;DHT22;2509;49.902;8.600;2023-07-08T12:07:31;38.10;66.90
4985;DHT22;2509;49.902;8.600;2023-07-08T12:10:38;38.30;66.70
4985;DHT22;2509;49.902;8.600;2023-07-08T12:13:40;38.70;65.20
4985;DHT22;2509;49.902;8.600;2023-07-08T12:16:42;38.90;65.50
4985;DHT22;2509;49.902;8.600;2023-07-08T12:19:45;38.70;64.80
4985;DHT22;2509;49.902;8.600;2023-07-08T12:22:48;39.00;65.20
4985;DHT22;2509;49.902;8.600;2023-07-08T12:25:52;39.20;64.70
4985;DHT22;2509;49.902;8.600;2023-07-08T12:28:56;39.10;64.40
4985;DHT22;2509;49.902;8.600;2023-07-08T12:31:58;39.80;66.00
4985;DHT22;2509;49.902;8.600;2023-07-08T12:35:00;40.70;64.00
4985;DHT22;2509;49.902;8.600;2023-07-08T12:38:09;41.00;64.50
4985;DHT22;2509;49.902;8.600;2023-07-08T12:41:17;41.20;63.40
4985;DHT22;2509;49.902;8.600;2023-07-08T12:44:21;41.60;62.90
4985;DHT22;2509;49.902;8.600;2023-07-08T12:47:23;41.90;62.80
4985;DHT22;2509;49.902;8.600;2023-07-08T12:50:25;41.50;64.00
4985;DHT22;2509;49.902;8.600;2023-07-08T12:53:27;41.70;62.40
4985;DHT22;2509;49.902;8.600;2023-07-08T12:56:30;42.30;60.70
4985;DHT22;2509;49.902;8.600;2023-07-08T12:59:32;42.40;61.50
4985;DHT22;2509;49.902;8.600;2023-07-08T13:02:34;42.80;62.30
4985;DHT22;2509;49.902;8.600;2023-07-08T13:05:36;41.80;62.10
4985;DHT22;2509;49.902;8.600;2023-07-08T13:08:39;40.40;63.80
4985;DHT22;2509;49.902;8.600;2023-07-08T13:11:42;40.50;62.10
4985;DHT22;2509;49.902;8.600;2023-07-08T13:14:45;41.20;60.70
4985;DHT22;2509;49.902;8.600;2023-07-08T13:17:47;41.00;60.90
4985;DHT22;2509;49.902;8.600;2023-07-08T13:20:52;41.60;59.40
4985;DHT22;2509;49.902;8.600;2023-07-08T13:23:54;41.30;60.30
4985;DHT22;2509;49.902;8.600;2023-07-08T13:27:16;41.70;59.70
4985;DHT22;2509;49.902;8.600;2023-07-08T13:30:31;41.70;58.40
4985;DHT22;2509;49.902;8.600;2023-07-08T13:33:34;41.10;59.50
4985;DHT22;2509;49.902;8.600;2023-07-08T13:36:38;41.70;60.00
4985;DHT22;2509;49.902;8.600;2023-07-08T13:39:44;42.70;58.40
4985;DHT22;2509;49.902;8.600;2023-07-08T13:42:49;42.80;60.00
4985;DHT22;2509;49.902;8.600;2023-07-08T13:45:52;42.70;57.90
4985;DHT22;2509;49.902;8.600;2023-07-08T13:48:53;42.80;58.20
4985;DHT22;2509;49.902;8.600;2023-07-08T13:52:05;42.80;57.60
4985;DHT22;2509;49.902;8.600;2023-07-08T13:55:16;43.00;58.00
4985;DHT22;2509;49.902;8.600;2023-07-08T13:58:27;43.70;58.00
4985;DHT22;2509;49.902;8.600;2023-07-08T14:01:37;43.90;56.20
4985;DHT22;2509;49.902;8.600;2023-07-08T14:04:40;42.70;58.50
4985;DHT22;2509;49.902;8.600;2023-07-08T14:07:41;42.70;57.90
4985;DHT22;2509;49.902;8.600;2023-07-08T14:10:45;42.70;58.10
4985;DHT22;2509;49.902;8.600;2023-07-08T14:13:48;42.90;57.70
4985;DHT22;2509;49.902;8.600;2023-07-08T14:16:52;42.80;57.10
4985;DHT22;2509;49.902;8.600;2023-07-08T14:19:54;42.50;58.00
4985;DHT22;2509;49.902;8.600;2023-07-08T14:22:56;42.60;57.70
4985;DHT22;2509;49.902;8.600;2023-07-08T14:25:58;42.20;58.10
4985;DHT22;2509;49.902;8.600;2023-07-08T14:29:02;42.40;58.50
4985;DHT22;2509;49.902;8.600;2023-07-08T14:32:20;42.50;58.20
4985;DHT22;2509;49.902;8.600;2023-07-08T14:35:34;42.40;58.10
4985;DHT22;2509;49.902;8.600;2023-07-08T14:38:58;42.30;58.10
4985;DHT22;2509;49.902;8.600;2023-07-08T14:42:13;42.80;57.10
4985;DHT22;2509;49.902;8.600;2023-07-08T14:45:22;43.20;57.50
4985;DHT22;2509;49.902;8.600;2023-07-08T14:48:28;43.50;57.80
4985;DHT22;2509;49.902;8.600;2023-07-08T14:51:31;43.60;56.60
4985;DHT22;2509;49.902;8.600;2023-07-08T14:54:45;43.00;56.90
4985;DHT22;2509;49.902;8.600;2023-07-08T14:57:59;42.10;57.90
4985;DHT22;2509;49.902;8.600;2023-07-08T15:01:11;42.40;57.20
4985;DHT22;2509;49.902;8.600;2023-07-08T15:04:24;42.40;57.40
4985;DHT22;2509;49.902;8.600;2023-07-08T15:07:27;42.50;58.60
4985;DHT22;2509;49.902;8.600;2023-07-08T15:10:30;42.50;58.50
4985;DHT22;2509;49.902;8.600;2023-07-08T15:13:36;41.60;59.80
4985;DHT22;2509;49.902;8.600;2023-07-08T15:16:59;41.80;58.00
4985;DHT22;2509;49.902;8.600;2023-07-08T15:20:09;42.50;57.00
4985;DHT22;2509;49.902;8.600;2023-07-08T15:23:13;42.90;56.90
4985;DHT22;2509;49.902;8.600;2023-07-08T15:26:15;43.10;56.50
4985;DHT22;2509;49.902;8.600;2023-07-08T15:29:19;43.20;56.70
4985;DHT22;2509;49.902;8.600;2023-07-08T15:32:24;43.00;56.60
4985;DHT22;2509;49.902;8.600;2023-07-08T15:35:27;43.00;56.70
4985;DHT22;2509;49.902;8.600;2023-07-08T15:38:34;42.90;56.60
4985;DHT22;2509;49.902;8.600;2023-07-08T15:41:36;42.90;56.10
4985;DHT22;2509;49.902;8.600;2023-07-08T15:44:39;43.10;56.10
4985;DHT22;2509;49.902;8.600;2023-07-08T15:47:43;43.20;55.60
4985;DHT22;2509;49.902;8.600;2023-07-08T15:50:45;42.70;56.10
4985;DHT22;2509;49.902;8.600;2023-07-08T15:53:48;42.20;56.20
4985;DHT22;2509;49.902;8.600;2023-07-08T15:56:52;40.30;57.70
4985;DHT22;2509;49.902;8.600;2023-07-08T15:59:56;39.20;59.40
4985;DHT22;2509;49.902;8.600;2023-07-08T16:03:01;38.40;60.10
4985;DHT22;2509;49.902;8.600;2023-07-08T16:06:07;37.90;61.00
4985;DHT22;2509;49.902;8.600;2023-07-08T16:09:09;37.20;61.70
4985;DHT22;2509;49.902;8.600;2023-07-08T16:12:19;37.00;62.40
4985;DHT22;2509;49.902;8.600;2023-07-08T16:15:27;37.00;62.00
4985;DHT22;2509;49.902;8.600;2023-07-08T16:18:31;36.80;62.30
4985;DHT22;2509;49.902;8.600;2023-07-08T16:21:33;36.50;62.90
4985;DHT22;2509;49.902;8.600;2023-07-08T16:24:35;36.20;64.40
4985;DHT22;2509;49.902;8.600;2023-07-08T16:27:37;35.90;65.50
4985;DHT22;2509;49.902;8.600;2023-07-08T16:30:39;35.60;66.30
4985;DHT22;2509;49.902;8.600;2023-07-08T16:33:42;35.40;67.20
4985;DHT22;2509;49.902;8.600;2023-07-08T16:36:44;35.10;67.50
4985;DHT22;2509;49.902;8.600;2023-07-08T16:39:46;34.90;68.30
4985;DHT22;2509;49.902;8.600;2023-07-08T16:42:49;34.60;68.90
4985;DHT22;2509;49.902;8.600;2023-07-08T16:45:51;34.40;69.50
4985;DHT22;2509;49.902;8.600;2023-07-08T16:48:55;34.30;70.30
4985;DHT22;2509;49.902;8.600;2023-07-08T16:51:56;34.20;69.90
4985;DHT22;2509;49.902;8.600;2023-07-08T16:54:59;34.20;70.20
4985;DHT22;2509;49.902;8.600;2023-07-08T16:58:01;34.00;70.30
4985;DHT22;2509;49.902;8.600;2023-07-08T17:01:03;33.80;70.70
4985;DHT22;2509;49.902;8.600;2023-07-08T17:04:09;33.70;70.60
4985;DHT22;2509;49.902;8.600;2023-07-08T17:07:12;33.60;71.10
4985;DHT22;2509;49.902;8.600;2023-07-08T17:10:15;33.50;71.20
4985;DHT22;2509;49.902;8.600;2023-07-08T17:13:17;33.40;71.40
4985;DHT22;2509;49.902;8.600;2023-07-08T17:16:22;33.30;72.20
4985;DHT22;2509;49.902;8.600;2023-07-08T17:19:28;33.20;72.00
4985;DHT22;2509;49.902;8.600;2023-07-08T17:22:30;33.00;72.90
4985;DHT22;2509;49.902;8.600;2023-07-08T17:25:32;32.80;74.60
4985;DHT22;2509;49.902;8.600;2023-07-08T17:28:34;32.60;75.00
4985;DHT22;2509;49.902;8.600;2023-07-08T17:31:37;32.50;74.70
4985;DHT22;2509;49.902;8.600;2023-07-08T17:34:41;32.50;74.70
4985;DHT22;2509;49.902;8.600;2023-07-08T17:37:44;32.40;75.00
4985;DHT22;2509;49.902;8.600;2023-07-08T17:40:46;32.40;75.20
4985;DHT22;2509;49.902;8.600;2023-07-08T17:43:48;32.30;76.50
4985;DHT22;2509;49.902;8.600;2023-07-08T17:46:50;32.00;77.30
4985;DHT22;2509;49.902;8.600;2023-07-08T17:49:53;31.80;77.90
4985;DHT22;2509;49.902;8.600;2023-07-08T17:52:56;31.60;78.90
4985;DHT22;2509;49.902;8.600;2023-07-08T17:55:59;31.40;78.90
4985;DHT22;2509;49.902;8.600;2023-07-08T17:59:02;31.30;79.30
4985;DHT22;2509;49.902;8.600;2023-07-08T18:02:13;31.10;79.80
4985;DHT22;2509;49.902;8.600;2023-07-08T18:05:19;31.00;79.70
4985;DHT22;2509;49.902;8.600;2023-07-08T18:08:21;31.00;80.00
4985;DHT22;2509;49.902;8.600;2023-07-08T18:11:23;31.00;79.30
4985;DHT22;2509;49.902;8.600;2023-07-08T18:14:27;31.00;78.80
4985;DHT22;2509;49.902;8.600;2023-07-08T18:17:29;30.80;77.80
4985;DHT22;2509;49.902;8.600;2023-07-08T18:20:34;30.60;76.70
4985;DHT22;2509;49.902;8.600;2023-07-08T18:23:36;30.50;76.20
4985;DHT22;2509;49.902;8.600;2023-07-08T18:26:40;30.40;75.40
4985;DHT22;2509;49.902;8.600;2023-07-08T18:29:43;30.30;75.40
4985;DHT22;2509;49.902;8.600;2023-07-08T18:32:46;30.20;75.20
4985;DHT22;2509;49.902;8.600;2023-07-08T18:35:50;30.00;75.80
4985;DHT22;2509;49.902;8.600;2023-07-08T18:38:52;29.80;76.40
4985;DHT22;2509;49.902;8.600;2023-07-08T18:41:55;29.90;76.70
4985;DHT22;2509;49.902;8.600;2023-07-08T18:44:57;29.90;76.70
4985;DHT22;2509;49.902;8.600;2023-07-08T18:47:59;29.70;77.70
4985;DHT22;2509;49.902;8.600;2023-07-08T18:51:10;29.70;79.20
4985;DHT22;2509;49.902;8.600;2023-07-08T18:54:17;29.80;79.20
4985;DHT22;2509;49.902;8.600;2023-07-08T18:57:19;29.70;81.00
4985;DHT22;2509;49.902;8.600;2023-07-08T19:00:21;29.80;83.40
4985;DHT22;2509;49.902;8.600;2023-07-08T19:03:24;29.70;81.30
4985;DHT22;2509;49.902;8.600;2023-07-08T19:06:28;29.70;81.50
4985;DHT22;2509;49.902;8.600;2023-07-08T19:09:30;29.70;80.80
4985;DHT22;2509;49.902;8.600;2023-07-08T19:12:34;29.70;81.40
4985;DHT22;2509;49.902;8.600;2023-07-08T19:15:36;29.70;82.10
4985;DHT22;2509;49.902;8.600;2023-07-08T19:18:38;29.60;81.60
4985;DHT22;2509;49.902;8.600;2023-07-08T19:21:42;29.50;82.30
4985;DHT22;2509;49.902;8.600;2023-07-08T19:24:44;29.40;83.40
4985;DHT22;2509;49.902;8.600;2023-07-08T19:27:46;29.30;84.20
4985;DHT22;2509;49.902;8.600;2023-07-08T19:30:50;29.20;84.80
4985;DHT22;2509;49.902;8.600;2023-07-08T19:33:54;29.20;85.80
4985;DHT22;2509;49.902;8.600;2023-07-08T19:36:57;29.10;85.20
4985;DHT22;2509;49.902;8.600;2023-07-08T19:39:59;29.00;85.70
4985;DHT22;2509;49.902;8.600;2023-07-08T19:43:01;28.80;87.40
4985;DHT22;2509;49.902;8.600;2023-07-08T19:46:02;28.70;88.20
4985;DHT22;2509;49.902;8.600;2023-07-08T19:49:07;28.70;88.10
4985;DHT22;2509;49.902;8.600;2023-07-08T19:52:11;28.60;85.80
4985;DHT22;2509;49.902;8.600;2023-07-08T19:55:14;28.50;86.50
4985;DHT22;2509;49.902;8.600;2023-07-08T19:58:15;28.40;87.70
4985;DHT22;2509;49.902;8.600;2023-07-08T20:01:17;28.30;88.40
4985;DHT22;2509;49.902;8.600;2023-07-08T20:04:21;28.20;87.60